Search for airport 
image banner adimage banner adimage banner ad
image banner ad

15CN - Adventist Medical Center Hanford

Located in Hanford, United States

ICAO - 15CN, IATA -

Data provided by Airmate  

General information

Coordinates: N36°19'24" W119°40'2"
Elevation is 281 feet MSL.
 
View others Airports in California

Operational data

Special qualification required
Current time UTC:
Current local time:
Weather at : KHJO - Hanford Muni ( 4 km )
METAR: KHJO 211153Z AUTO 29005KT 10SM CLR 22/13 A2981 RMK AO2 SLP095 T02220128 10311 20222 53010 $
View NOTAMs / SUP AIP / TFR affecting this airport [VIEW]
Communications frequencies: [VIEW]

Runways:

Airport contact information

Address: Hanford United States

Satellite view of 15CN